Sible Hedingham, United Kingdom
Current Conditions -  °F | °C
As of 2:50 AM on Saturday 22 Nov 2014 (Local Time) from EGSS Reporting Station
Haze Haze  
Wind Chill: 45°   Ceiling: 200
Heat Index: 48°   Visibility: 1mi
Dew Point: 48°   Wind: 8mph
Humidity: 100%   Direction: 160°SSE
Pressure: 29.88"   Gusts: NA
Location:  51.98°N, 0.59°E
Report Text: EGSS 220250Z 16007KT 1600 BR OVC002 09/09 Q1012
Loading
Personal Weather Stations






























Interactive Weather Map New forecast layout! Learn more

10-Day Weather Forecast

Advertisements
Track Severe Weather on mobile